Time;durP1;ratioP1;P1;durP2;ratioP2;P2;SDS_P1;SDS_P2;PMS_P1;PMS_P2;Temp;Humidity;BMP_temperature;BMP_pressure;BME280_temperature;BME280_humidity;BME280_pressure;Samples;Min_cycle;Max_cycle;Signal;HPM_P1;HPM_P2
2021/05/06 00:33:01;;;;;;;15.20;13.05;;;2.90;99.90;;;;;;5052866;28;20185;-78
2021/05/06 00:35:28;;;;;;;17.00;11.60;;;2.80;99.90;;;;;;5052452;28;20170;-78
2021/05/06 00:38:09;;;;;;;13.90;11.52;;;2.80;99.90;;;;;;5052689;28;20219;-78
2021/05/06 00:43:46;;;;;;;20.15;12.07;;;2.70;99.90;;;;;;5052750;28;20637;-78
2021/05/06 01:09:50;;;;;;;15.07;11.15;;;2.70;99.90;;;;;;5056019;28;20185;-77
2021/05/06 01:12:16;;;;;;;11.02;9.80;;;2.60;99.90;;;;;;5054447;28;20590;-77
2021/05/06 01:14:41;;;;;;;16.57;11.20;;;2.60;99.90;;;;;;5055664;28;20223;-77
2021/05/06 01:17:07;;;;;;;16.10;11.30;;;2.60;99.90;;;;;;5055990;28;20189;-78
2021/05/06 01:19:33;;;;;;;13.30;10.27;;;2.60;99.90;;;;;;5054819;28;20253;-78
2021/05/06 01:21:58;;;;;;;14.73;10.93;;;2.60;99.90;;;;;;5055989;28;20622;-78
2021/05/06 01:24:25;;;;;;;18.50;10.87;;;2.60;99.90;;;;;;5055543;28;20174;-78
2021/05/06 01:27:00;;;;;;;11.93;8.80;;;2.60;99.90;;;;;;5054211;28;20669;-78
2021/05/06 01:29:41;;;;;;;22.23;9.70;;;2.60;99.90;;;;;;5054287;28;20190;-77
2021/05/06 01:34:33;;;;;;;10.63;8.47;;;2.60;99.90;;;;;;5055187;28;20236;-77
2021/05/06 01:37:10;;;;;;;12.55;8.68;;;2.60;99.90;;;;;;5055270;28;20596;-78
2021/05/06 01:42:15;;;;;;;9.45;7.07;;;2.60;99.90;;;;;;5055617;28;20496;-79
2021/05/06 01:45:28;;;;;;;11.23;7.57;;;2.60;99.90;;;;;;5055175;28;20166;-77
2021/05/06 01:47:37;;;;;;;10.32;7.82;;;2.70;99.90;;;;;;5054101;28;20311;-78
2021/05/06 01:58:11;;;;;;;7.70;6.30;;;2.70;99.90;;;;;;5055566;28;20212;-78
2021/05/06 02:00:41;;;;;;;9.77;6.95;;;2.60;99.90;;;;;;5054965;28;20176;-79
2021/05/06 02:03:06;;;;;;;7.10;5.85;;;2.60;99.90;;;;;;5054976;28;20307;-78
2021/05/06 02:05:32;;;;;;;8.60;5.30;;;2.60;99.90;;;;;;5054565;28;20222;-77
2021/05/06 02:07:57;;;;;;;7.67;5.30;;;2.60;99.90;;;;;;5053680;28;20185;-77
2021/05/06 02:10:26;;;;;;;8.37;5.30;;;2.60;99.90;;;;;;5054895;28;20189;-78
2021/05/06 02:12:52;;;;;;;9.43;4.20;;;2.60;99.90;;;;;;5053601;28;20653;-79
2021/05/06 02:15:28;;;;;;;8.40;4.93;;;2.70;99.90;;;;;;5054411;28;20165;-78
2021/05/06 02:17:55;;;;;;;5.93;5.22;;;2.70;99.90;;;;;;5054872;28;20474;-78
2021/05/06 02:20:21;;;;;;;4.80;3.85;;;2.70;99.90;;;;;;5054643;28;20218;-78
2021/05/06 02:22:48;;;;;;;7.00;3.90;;;2.70;99.90;;;;;;5054526;28;20522;-78
2021/05/06 02:25:14;;;;;;;8.05;4.25;;;2.70;99.90;;;;;;5054176;28;20176;-78
2021/05/06 02:27:40;;;;;;;6.18;4.53;;;2.70;99.90;;;;;;5054348;28;20205;-78
2021/05/06 02:30:06;;;;;;;7.17;4.50;;;2.70;99.90;;;;;;5054681;28;20176;-79
2021/05/06 02:32:31;;;;;;;5.80;4.47;;;2.80;99.90;;;;;;5054616;28;20166;-77
2021/05/06 02:34:58;;;;;;;7.20;3.80;;;2.80;99.90;;;;;;5054302;28;20176;-78
2021/05/06 02:37:26;;;;;;;4.50;4.00;;;2.80;99.90;;;;;;5054455;28;20537;-78
2021/05/06 02:39:52;;;;;;;9.70;3.60;;;2.80;99.90;;;;;;5054420;28;20622;-77
2021/05/06 02:42:18;;;;;;;4.70;2.75;;;2.80;99.90;;;;;;5054401;28;20177;-77
2021/05/06 02:44:44;;;;;;;3.53;3.00;;;2.90;99.90;;;;;;5053912;28;20213;-78
2021/05/06 02:47:09;;;;;;;5.20;3.43;;;2.90;99.90;;;;;;5052966;28;20435;-78
2021/05/06 02:49:36;;;;;;;4.77;4.10;;;3.00;99.90;;;;;;5053271;28;20228;-78
2021/05/06 02:52:08;;;;;;;5.57;3.65;;;3.00;99.90;;;;;;5054166;28;20176;-77
2021/05/06 02:54:44;;;;;;;5.38;3.15;;;3.10;99.90;;;;;;5053722;28;20220;-79
2021/05/06 03:02:58;;;;;;;10.60;3.63;;;3.10;99.90;;;;;;5032005;28;20561;-78
2021/05/06 03:05:28;;;;;;;7.35;4.10;;;3.10;99.90;;;;;;5035682;28;20196;-78
2021/05/06 03:10:31;;;;;;;3.63;3.13;;;3.10;99.90;;;;;;5053655;28;20161;-78
2021/05/06 03:13:45;;;;;;;3.30;2.88;;;3.10;99.90;;;;;;5053673;28;20192;-78
2021/05/06 03:23:36;;;;;;;3.63;2.90;;;3.20;99.90;;;;;;5053542;28;20197;-79
2021/05/06 03:26:02;;;;;;;4.40;3.27;;;3.30;99.90;;;;;;5051877;28;20197;-79
2021/05/06 03:28:33;;;;;;;5.30;3.10;;;3.50;99.90;;;;;;5053632;28;20215;-78
2021/05/06 03:31:19;;;;;;;8.05;3.72;;;3.50;99.90;;;;;;5053465;28;20162;-78
2021/05/06 03:47:15;;;;;;;7.38;3.17;;;4.10;99.90;;;;;;5053350;28;20194;-78
2021/05/06 04:37:40;;;;;;;5.53;3.20;;;5.40;99.90;;;;;;5056831;28;20195;-80
2021/05/06 04:40:19;;;;;;;12.05;3.60;;;5.40;99.90;;;;;;5056834;28;20173;-81
2021/05/06 04:45:50;;;;;;;5.07;3.43;;;5.50;99.90;;;;;;5056447;28;20176;-80
2021/05/06 04:53:44;;;;;;;5.32;3.22;;;5.40;99.90;;;;;;5056744;28;20208;-80
2021/05/06 04:56:21;;;;;;;6.50;3.75;;;5.50;99.90;;;;;;5056078;28;20568;-80
2021/05/06 05:06:32;;;;;;;6.22;3.30;;;5.70;99.90;;;;;;5055651;28;21802;-81
2021/05/06 05:11:47;;;;;;;6.45;4.30;;;5.80;99.90;;;;;;5056343;28;20170;-80
2021/05/06 05:25:07;;;;;;;5.25;3.67;;;5.60;99.90;;;;;;5054880;28;20238;-79
2021/05/06 05:27:33;;;;;;;6.32;3.60;;;5.60;99.90;;;;;;5055689;28;20193;-80
2021/05/06 05:29:59;;;;;;;4.40;3.20;;;5.70;99.90;;;;;;5055993;28;20169;-80
2021/05/06 05:32:24;;;;;;;6.30;3.40;;;5.70;99.90;;;;;;5055468;28;20629;-83
2021/05/06 05:37:52;;;;;;;7.20;3.85;;;5.90;99.90;;;;;;5043522;28;20205;-83
2021/05/06 05:43:01;;;;;;;7.13;4.23;;;5.80;99.90;;;;;;5054070;28;20188;-81
2021/05/06 05:56:19;;;;;;;5.07;3.78;;;6.30;99.90;;;;;;5035225;28;20204;-80
2021/05/06 05:58:45;;;;;;;10.23;4.37;;;6.30;99.90;;;;;;5035291;28;20257;-79
2021/05/06 06:01:11;;;;;;;6.57;3.85;;;6.40;99.90;;;;;;5046219;28;20235;-84
2021/05/06 06:03:36;;;;;;;5.93;3.70;;;6.40;99.90;;;;;;5053469;28;20638;-83
2021/05/06 06:06:03;;;;;;;7.40;4.17;;;6.40;99.90;;;;;;5053528;28;20215;-79
2021/05/06 06:08:30;;;;;;;6.47;3.97;;;6.40;99.90;;;;;;5054630;28;20189;-77
2021/05/06 06:10:56;;;;;;;5.45;3.60;;;6.50;99.90;;;;;;5054863;28;20501;-77
2021/05/06 06:13:22;;;;;;;8.43;3.23;;;6.70;99.90;;;;;;5054714;28;20205;-78
2021/05/06 06:18:22;;;;;;;9.18;3.90;;;6.60;99.90;;;;;;5054667;28;20408;-78
2021/05/06 06:20:56;;;;;;;10.07;3.70;;;6.70;99.90;;;;;;5054343;28;20262;-76
2021/05/06 06:23:21;;;;;;;4.68;3.00;;;6.70;99.90;;;;;;5054710;28;20201;-78
2021/05/06 06:25:47;;;;;;;5.57;3.47;;;6.60;99.90;;;;;;5036618;28;20693;-80
2021/05/06 06:28:13;;;;;;;7.43;4.27;;;6.60;99.90;;;;;;5054510;28;20169;-79
2021/05/06 06:30:40;;;;;;;5.40;3.73;;;6.70;99.90;;;;;;5054444;28;20204;-78
2021/05/06 06:33:06;;;;;;;10.73;4.15;;;6.90;99.90;;;;;;5054376;28;20443;-79
2021/05/06 06:35:35;;;;;;;8.20;4.27;;;7.00;99.90;;;;;;5053952;28;20162;-78
2021/05/06 06:38:00;;;;;;;14.07;3.78;;;7.00;99.90;;;;;;5054587;28;20256;-78
2021/05/06 06:40:26;;;;;;;10.93;3.57;;;7.00;99.90;;;;;;5054145;28;20200;-77
2021/05/06 06:42:51;;;;;;;9.93;3.70;;;7.10;99.90;;;;;;5053107;28;20194;-79
2021/05/06 06:45:19;;;;;;;8.63;3.90;;;7.10;99.90;;;;;;5053784;28;20192;-77
2021/05/06 06:47:51;;;;;;;9.15;3.65;;;7.20;99.90;;;;;;5054013;28;20201;-78
2021/05/06 06:50:17;;;;;;;4.80;3.28;;;7.30;99.90;;;;;;5054286;28;20173;-78
2021/05/06 06:52:42;;;;;;;5.00;2.60;;;7.20;99.90;;;;;;5053965;28;20202;-76
2021/05/06 06:55:08;;;;;;;5.57;3.33;;;7.20;99.90;;;;;;5053612;28;20176;-77
2021/05/06 06:57:34;;;;;;;6.83;3.17;;;7.10;99.90;;;;;;5053862;28;20246;-75
2021/05/06 07:00:00;;;;;;;3.53;2.97;;;7.30;99.90;;;;;;5053493;28;20441;-78
2021/05/06 07:02:25;;;;;;;3.50;2.60;;;7.50;99.90;;;;;;5052595;28;20451;-77
2021/05/06 07:04:51;;;;;;;5.90;2.80;;;7.40;99.90;;;;;;5053354;28;20507;-76
2021/05/06 07:07:18;;;;;;;3.70;2.20;;;7.50;99.90;;;;;;5052456;28;20251;-77
2021/05/06 07:09:43;;;;;;;6.82;2.78;;;7.50;99.90;;;;;;5053732;28;20701;-77
2021/05/06 07:12:09;;;;;;;4.57;3.10;;;7.50;99.90;;;;;;5053837;28;20205;-76
2021/05/06 07:14:37;;;;;;;5.13;2.70;;;7.60;99.90;;;;;;5053428;28;20212;-76
2021/05/06 07:17:03;;;;;;;5.05;2.90;;;7.60;99.90;;;;;;5053492;28;20545;-78
2021/05/06 07:19:29;;;;;;;4.00;3.60;;;7.70;99.90;;;;;;5053625;28;20177;-77
2021/05/06 07:21:55;;;;;;;6.13;3.20;;;7.70;99.90;;;;;;5053775;28;20169;-77
2021/05/06 07:24:20;;;;;;;5.47;4.43;;;7.80;99.90;;;;;;5052339;28;20411;-77
2021/05/06 07:26:46;;;;;;;2.80;2.23;;;7.90;99.90;;;;;;5053108;28;20193;-77
2021/05/06 07:29:15;;;;;;;4.53;2.47;;;8.10;99.90;;;;;;5052086;28;20177;-76
2021/05/06 07:31:41;;;;;;;7.53;3.15;;;8.20;99.90;;;;;;5053631;28;20181;-76
2021/05/06 07:34:06;;;;;;;7.07;3.37;;;8.20;99.90;;;;;;5053437;28;20646;-77
2021/05/06 07:36:32;;;;;;;8.40;2.90;;;8.20;99.90;;;;;;5052932;28;20658;-76
2021/05/06 07:38:58;;;;;;;5.03;3.30;;;8.20;99.90;;;;;;5053739;28;20166;-77
2021/05/06 07:41:23;;;;;;;8.63;3.27;;;8.30;99.90;;;;;;5053304;28;20174;-77
2021/05/06 07:43:49;;;;;;;6.00;3.00;;;8.50;99.90;;;;;;5053374;28;20626;-78
2021/05/06 07:46:15;;;;;;;7.00;3.27;;;8.60;99.90;;;;;;5052579;28;20212;-78
2021/05/06 07:48:40;;;;;;;7.20;3.43;;;8.70;99.90;;;;;;5053217;28;20257;-77
2021/05/06 07:51:06;;;;;;;5.40;2.70;;;8.60;99.90;;;;;;5053204;28;20177;-79
2021/05/06 07:53:40;;;;;;;4.53;2.77;;;8.60;99.90;;;;;;5052934;28;20451;-76
2021/05/06 07:56:05;;;;;;;3.88;2.50;;;8.80;99.90;;;;;;5052852;28;20507;-76
2021/05/06 07:58:31;;;;;;;4.57;2.77;;;8.90;99.90;;;;;;5035479;28;20681;-76
2021/05/06 08:00:58;;;;;;;2.50;2.30;;;9.00;99.90;;;;;;5053117;28;20173;-77
2021/05/06 08:03:23;;;;;;;4.65;2.70;;;9.20;99.90;;;;;;5053158;28;20215;-77
2021/05/06 08:05:53;;;;;;;4.60;2.60;;;8.90;99.90;;;;;;5052758;28;20205;-78
2021/05/06 08:08:19;;;;;;;7.13;3.40;;;8.90;99.90;;;;;;5053005;28;20227;-78
2021/05/06 08:10:44;;;;;;;7.67;2.20;;;8.90;99.90;;;;;;5053711;28;20532;-78
2021/05/06 08:13:10;;;;;;;5.30;2.50;;;8.90;99.90;;;;;;5055757;28;20554;-76
2021/05/06 08:15:35;;;;;;;6.10;2.60;;;9.00;99.90;;;;;;5056480;28;20215;-79
2021/05/06 08:18:01;;;;;;;6.67;2.93;;;9.20;99.90;;;;;;5057068;28;20173;-79
2021/05/06 08:20:27;;;;;;;5.00;2.60;;;9.30;99.90;;;;;;5057064;28;20204;-77
2021/05/06 08:22:52;;;;;;;5.63;2.20;;;9.50;99.90;;;;;;5056983;28;20185;-77
2021/05/06 08:25:23;;;;;;;5.10;2.67;;;9.60;99.90;;;;;;5055425;28;20173;-75
2021/05/06 08:27:49;;;;;;;5.20;2.40;;;9.60;99.90;;;;;;5056508;28;20197;-78
2021/05/06 08:30:15;;;;;;;3.23;2.10;;;9.60;99.90;;;;;;5056723;28;20423;-78
2021/05/06 08:32:42;;;;;;;5.20;2.40;;;10.00;99.90;;;;;;5056582;28;20864;-78
2021/05/06 08:35:09;;;;;;;3.83;2.30;;;10.00;99.90;;;;;;5056447;28;20408;-77
2021/05/06 08:37:34;;;;;;;7.90;4.50;;;9.70;99.90;;;;;;5056599;28;20519;-78
2021/05/06 08:40:01;;;;;;;3.47;1.80;;;10.10;99.90;;;;;;5055329;28;20550;-78
2021/05/06 08:42:28;;;;;;;5.23;2.40;;;10.40;99.90;;;;;;5056495;28;20181;-81
2021/05/06 08:44:54;;;;;;;6.43;2.83;;;10.30;99.90;;;;;;5056284;28;20423;-80
2021/05/06 08:47:23;;;;;;;4.60;1.90;;;9.90;99.90;;;;;;5056617;28;20908;-81
2021/05/06 08:49:49;;;;;;;2.23;2.03;;;10.10;99.90;;;;;;5055630;28;20416;-81
2021/05/06 08:52:19;;;;;;;2.53;1.60;;;9.90;99.90;;;;;;5054314;28;20411;-79
2021/05/06 08:54:49;;;;;;;4.10;1.80;;;9.90;99.90;;;;;;5054354;28;20489;-79
2021/05/06 08:57:15;;;;;;;2.00;1.60;;;10.40;99.90;;;;;;5055126;28;20450;-80
2021/05/06 08:59:41;;;;;;;2.80;1.67;;;10.70;99.90;;;;;;5056288;28;20404;-83
2021/05/06 09:02:08;;;;;;;2.40;1.43;;;10.80;99.90;;;;;;5056168;28;20407;-81
2021/05/06 09:04:34;;;;;;;6.03;1.90;;;10.90;99.90;;;;;;5056146;28;20415;-81
2021/05/06 09:07:02;;;;;;;2.83;1.57;;;10.80;99.90;;;;;;5055925;28;20962;-79
2021/05/06 09:09:30;;;;;;;3.83;1.83;;;10.40;99.90;;;;;;5055965;28;20391;-80
2021/05/06 09:11:57;;;;;;;2.60;1.70;;;10.70;99.90;;;;;;5055933;28;20408;-83
2021/05/06 09:14:48;;;;;;;7.47;1.60;;;11.10;99.90;;;;;;5055647;28;20451;-84
2021/05/06 09:17:30;;;;;;;4.70;1.60;;;11.40;99.90;;;;;;5055747;28;20442;-79
2021/05/06 09:20:13;;;;;;;4.90;1.93;;;11.40;99.90;;;;;;5055924;28;20408;-81
2021/05/06 09:22:52;;;;;;;3.93;1.90;;;11.30;99.90;;;;;;5055406;28;20478;-83
2021/05/06 09:25:31;;;;;;;2.53;1.63;;;11.10;99.90;;;;;;5054291;28;20414;-83
2021/05/06 09:28:12;;;;;;;4.37;2.07;;;11.80;99.90;;;;;;5055839;28;20946;-83
2021/05/06 09:31:01;;;;;;;2.40;1.60;;;11.80;99.90;;;;;;5054426;28;20386;-80
2021/05/06 09:33:41;;;;;;;1.97;1.27;;;11.60;99.90;;;;;;5055592;28;20763;-83
2021/05/06 09:36:16;;;;;;;2.80;1.37;;;11.00;99.90;;;;;;5054002;28;20436;-83
2021/05/06 09:38:53;;;;;;;1.77;1.20;;;11.30;99.90;;;;;;5055585;28;20755;-83
2021/05/06 09:41:20;;;;;;;4.20;1.93;;;11.00;99.90;;;;;;5055772;28;20403;-81
2021/05/06 09:43:47;;;;;;;3.40;1.60;;;11.10;99.90;;;;;;5054488;28;20818;-84
2021/05/06 09:46:35;;;;;;;3.30;1.70;;;11.40;99.90;;;;;;5055322;28;20489;-80
2021/05/06 09:49:13;;;;;;;4.73;1.33;;;12.10;99.90;;;;;;5055500;28;20368;-82
2021/05/06 09:51:45;;;;;;;3.00;1.47;;;12.10;99.90;;;;;;5055638;28;20412;-81
2021/05/06 09:54:13;;;;;;;2.60;1.80;;;12.20;99.90;;;;;;5055279;28;20831;-83
2021/05/06 09:56:41;;;;;;;3.30;1.70;;;12.30;99.90;;;;;;5037036;28;20406;-83
2021/05/06 09:59:08;;;;;;;2.37;1.40;;;12.00;99.90;;;;;;5055601;28;20392;-78
2021/05/06 10:01:39;;;;;;;3.90;1.30;;;11.80;99.90;;;;;;5054196;28;20453;-82
2021/05/06 10:04:19;;;;;;;1.93;1.40;;;12.00;99.90;;;;;;5055154;28;20396;-84
2021/05/06 10:07:13;;;;;;;2.60;1.27;;;12.10;99.90;;;;;;5053425;28;20440;-83
2021/05/06 10:09:58;;;;;;;4.37;1.60;;;12.60;99.90;;;;;;5055122;28;20446;-79
2021/05/06 10:12:35;;;;;;;3.60;1.40;;;12.80;99.90;;;;;;5053617;28;20511;-83
2021/05/06 10:15:03;;;;;;;2.67;1.30;;;12.80;99.90;;;;;;5054768;28;20846;-80
2021/05/06 10:17:30;;;;;;;2.10;1.80;;;13.00;99.90;;;;;;5054643;28;20398;-83
2021/05/06 10:19:57;;;;;;;1.53;1.30;;;13.40;99.90;;;;;;5054973;28;20436;-82
2021/05/06 10:22:29;;;;;;;1.73;1.27;;;13.50;99.90;;;;;;5053479;28;20417;-81
2021/05/06 10:24:55;;;;;;;1.47;1.30;;;13.10;99.90;;;;;;5054319;28;20462;-80
2021/05/06 10:27:24;;;;;;;1.60;1.40;;;13.10;99.90;;;;;;5053388;28;20439;-78
2021/05/06 10:29:56;;;;;;;3.13;1.40;;;13.50;99.90;;;;;;5054657;28;20824;-78
2021/05/06 10:32:24;;;;;;;1.40;1.30;;;13.30;99.90;;;;;;5054559;28;20374;-84
2021/05/06 10:34:55;;;;;;;4.13;1.47;;;13.20;99.90;;;;;;5053347;28;20469;-80
2021/05/06 10:37:38;;;;;;;4.60;1.73;;;13.80;99.90;;;;;;5054438;28;20403;-81
2021/05/06 10:40:34;;;;;;;2.40;1.50;;;13.40;99.90;;;;;;5053027;28;20423;-82
2021/05/06 10:43:23;;;;;;;2.20;1.17;;;13.50;99.90;;;;;;5052729;28;20398;-83
2021/05/06 10:46:01;;;;;;;2.90;1.30;;;13.50;99.90;;;;;;5052655;28;20456;-83
2021/05/06 10:49:01;;;;;;;3.37;1.60;;;13.00;99.90;;;;;;5054254;28;20897;-79
2021/05/06 10:51:35;;;;;;;3.00;1.17;;;13.40;99.90;;;;;;5049990;28;20455;-83
2021/05/06 10:54:40;;;;;;;1.70;1.30;;;13.20;99.90;;;;;;5052758;28;20456;-80
2021/05/06 10:57:11;;;;;;;2.37;1.40;;;13.30;99.90;;;;;;5054289;28;20443;-81
2021/05/06 10:59:42;;;;;;;1.47;1.37;;;13.50;99.90;;;;;;5054279;28;20724;-80
2021/05/06 11:02:08;;;;;;;1.47;1.20;;;13.80;99.90;;;;;;5054089;28;20505;-79
2021/05/06 11:04:37;;;;;;;2.53;1.53;;;13.50;99.90;;;;;;5053760;28;20444;-82
2021/05/06 11:07:21;;;;;;;3.10;1.73;;;14.00;99.90;;;;;;5053695;28;20410;-81
2021/05/06 11:09:53;;;;;;;7.40;1.67;;;14.10;99.90;;;;;;5052921;28;20423;-79
2021/05/06 11:12:26;;;;;;;2.43;1.40;;;14.60;99.80;;;;;;5054058;28;20382;-80
2021/05/06 11:15:01;;;;;;;2.50;1.30;;;15.10;99.50;;;;;;5053353;28;20513;-81
2021/05/06 11:17:40;;;;;;;1.73;1.30;;;15.30;99.00;;;;;;5053629;28;20420;-82
2021/05/06 11:20:12;;;;;;;3.47;1.50;;;15.00;97.90;;;;;;5053819;28;20572;-81
2021/05/06 11:22:44;;;;;;;2.60;1.43;;;14.50;96.20;;;;;;5052375;28;20409;-82
2021/05/06 11:28:20;;;;;;;3.10;1.50;;;13.90;99.90;;;;;;5053683;28;20389;-81
2021/05/06 11:30:48;;;;;;;3.80;1.43;;;14.00;98.80;;;;;;5053270;28;20805;-82
2021/05/06 11:33:24;;;;;;;4.27;1.80;;;14.00;97.10;;;;;;5051945;28;20451;-81
2021/05/06 11:36:11;;;;;;;3.03;1.57;;;13.20;96.10;;;;;;5053229;28;20438;-82
2021/05/06 11:38:37;;;;;;;3.07;1.30;;;13.10;96.80;;;;;;5053466;28;20444;-83
2021/05/06 11:41:12;;;;;;;3.33;1.60;;;12.90;96.50;;;;;;5053376;28;20400;-80
2021/05/06 11:43:50;;;;;;;4.57;1.73;;;13.40;96.60;;;;;;5052086;28;20781;-81
2021/05/06 11:46:37;;;;;;;4.17;1.47;;;13.60;97.30;;;;;;5052854;28;20406;-82
2021/05/06 11:49:05;;;;;;;3.33;1.47;;;13.70;95.60;;;;;;5053244;28;20419;-81
2021/05/06 11:51:41;;;;;;;2.17;1.63;;;13.70;93.90;;;;;;5051947;28;20503;-80
2021/05/06 11:54:15;;;;;;;3.33;2.30;;;13.60;93.50;;;;;;5053058;28;20450;-79
2021/05/06 11:56:51;;;;;;;2.43;1.40;;;13.60;95.00;;;;;;5018907;28;20435;-81
2021/05/06 11:59:18;;;;;;;3.53;1.70;;;13.80;97.10;;;;;;5053206;28;20400;-82
2021/05/06 12:01:45;;;;;;;2.50;1.53;;;14.10;98.30;;;;;;5053012;28;20502;-83
2021/05/06 12:04:24;;;;;;;2.87;1.27;;;14.40;98.50;;;;;;5053118;28;20415;-80
2021/05/06 12:06:50;;;;;;;2.87;1.60;;;13.50;94.40;;;;;;5052937;28;20436;-81
2021/05/06 12:09:28;;;;;;;2.77;1.97;;;13.80;94.60;;;;;;5051881;28;20465;-79
2021/05/06 12:11:54;;;;;;;1.40;1.30;;;14.30;95.20;;;;;;5053093;28;20367;-81
2021/05/06 12:14:38;;;;;;;2.00;1.80;;;14.60;93.30;;;;;;5053066;28;21054;-79
2021/05/06 12:17:08;;;;;;;4.90;1.73;;;14.40;95.10;;;;;;5053090;28;20267;-84
2021/05/06 12:19:44;;;;;;;2.67;1.40;;;14.30;94.00;;;;;;5053036;28;20411;-84
2021/05/06 12:22:10;;;;;;;2.53;1.40;;;14.40;93.30;;;;;;5052890;28;20461;-84
2021/05/06 12:24:42;;;;;;;2.43;1.50;;;14.10;93.10;;;;;;5051510;28;20428;-83
2021/05/06 12:27:20;;;;;;;3.23;1.70;;;14.40;95.60;;;;;;5053052;28;20186;-80
2021/05/06 12:29:48;;;;;;;2.27;1.67;;;15.00;94.00;;;;;;5052771;28;20923;-81
2021/05/06 12:32:21;;;;;;;2.00;1.83;;;14.70;92.60;;;;;;5052853;28;20382;-80
2021/05/06 12:34:47;;;;;;;3.10;1.37;;;14.50;93.20;;;;;;5052529;28;20430;-81
2021/05/06 12:37:13;;;;;;;3.37;1.70;;;14.10;90.90;;;;;;5052790;28;20432;-82
2021/05/06 12:39:45;;;;;;;3.00;1.20;;;14.00;91.30;;;;;;5051645;28;20412;-81
2021/05/06 12:42:11;;;;;;;4.43;1.73;;;14.10;92.10;;;;;;5052785;28;20408;-81
2021/05/06 12:44:43;;;;;;;3.07;1.60;;;14.20;91.00;;;;;;5052417;28;20419;-83
2021/05/06 12:47:28;;;;;;;5.20;1.50;;;14.20;91.40;;;;;;5052639;28;20541;-78
2021/05/06 12:50:06;;;;;;;2.20;1.90;;;14.70;93.50;;;;;;5052595;28;20400;-81
2021/05/06 12:52:34;;;;;;;2.57;1.37;;;15.00;91.90;;;;;;5052698;28;20446;-81
2021/05/06 12:55:02;;;;;;;3.30;1.90;;;15.20;93.30;;;;;;5052332;28;20538;-80
2021/05/06 12:57:29;;;;;;;1.80;1.50;;;15.10;90.00;;;;;;5054608;28;20402;-81
2021/05/06 13:00:21;;;;;;;4.43;1.50;;;14.90;90.70;;;;;;5056143;28;20756;-81
2021/05/06 13:02:47;;;;;;;2.60;1.30;;;14.60;92.20;;;;;;5056401;28;20404;-79
2021/05/06 13:05:28;;;;;;;2.70;1.50;;;14.20;92.90;;;;;;5055984;28;20453;-80
2021/05/06 13:07:55;;;;;;;2.23;1.70;;;13.70;92.10;;;;;;5055050;28;20184;-81
2021/05/06 13:10:34;;;;;;;2.37;1.67;;;13.20;93.00;;;;;;5038437;28;20439;-82
2021/05/06 13:13:01;;;;;;;5.13;1.90;;;13.40;94.10;;;;;;5056076;28;20483;-83
2021/05/06 13:15:27;;;;;;;4.63;1.80;;;13.70;93.40;;;;;;5055828;28;20407;-79
2021/05/06 13:17:55;;;;;;;2.13;1.73;;;13.50;92.80;;;;;;5055971;28;20402;-83
2021/05/06 13:20:27;;;;;;;4.20;1.77;;;13.30;92.70;;;;;;5055973;28;20844;-80
2021/05/06 13:23:10;;;;;;;1.87;1.33;;;13.50;92.90;;;;;;5056026;28;20413;-80
2021/05/06 13:25:40;;;;;;;2.73;1.60;;;13.60;93.30;;;;;;5055659;28;20785;-81
2021/05/06 13:28:06;;;;;;;3.33;1.57;;;13.50;93.50;;;;;;5055684;28;20407;-81
2021/05/06 13:30:32;;;;;;;3.00;1.53;;;13.50;93.40;;;;;;5055698;28;20414;-79
2021/05/06 13:33:28;;;;;;;2.53;1.70;;;13.40;94.70;;;;;;5055633;28;20940;-80
2021/05/06 13:36:09;;;;;;;3.77;1.37;;;13.50;93.80;;;;;;5038061;28;20453;-80
2021/05/06 13:39:01;;;;;;;4.90;1.80;;;13.10;94.30;;;;;;5054293;28;20423;-78
2021/05/06 13:41:29;;;;;;;3.53;1.80;;;12.90;94.90;;;;;;5055497;28;20401;-83
2021/05/06 13:43:57;;;;;;;4.73;2.03;;;13.20;95.30;;;;;;5055504;28;20379;-80
2021/05/06 13:46:23;;;;;;;4.93;1.93;;;12.60;97.60;;;;;;5055006;28;20507;-79
2021/05/06 13:48:50;;;;;;;2.10;1.70;;;12.30;99.90;;;;;;5055496;28;20412;-81
2021/05/06 13:51:16;;;;;;;4.53;1.80;;;12.10;99.90;;;;;;5054195;28;20427;-78
2021/05/06 13:53:43;;;;;;;3.90;1.57;;;12.50;99.90;;;;;;5053993;28;20455;-78
2021/05/06 13:56:09;;;;;;;3.17;1.40;;;12.40;99.90;;;;;;5055017;28;20959;-83
2021/05/06 13:58:36;;;;;;;3.03;1.47;;;12.20;99.90;;;;;;5054172;28;20404;-79
2021/05/06 14:01:06;;;;;;;3.40;1.70;;;12.10;99.90;;;;;;5055334;28;20419;-82
2021/05/06 14:03:32;;;;;;;4.40;1.57;;;12.30;99.90;;;;;;5055781;28;20438;-82
2021/05/06 14:05:59;;;;;;;3.67;1.60;;;12.40;99.90;;;;;;5056293;28;20435;-78
2021/05/06 14:08:25;;;;;;;2.70;1.70;;;12.40;99.90;;;;;;5058315;28;20435;-79
2021/05/06 14:10:52;;;;;;;2.50;1.40;;;12.20;99.90;;;;;;5058198;28;20470;-78
2021/05/06 14:13:18;;;;;;;2.70;1.33;;;12.50;99.90;;;;;;5055221;28;20466;-80
2021/05/06 14:15:45;;;;;;;3.07;1.90;;;12.30;99.90;;;;;;5054537;28;20775;-82
2021/05/06 14:18:10;;;;;;;3.40;1.80;;;12.10;99.90;;;;;;5053609;28;20173;-80
2021/05/06 14:20:36;;;;;;;4.57;1.97;;;11.90;99.90;;;;;;5053612;28;20947;-79
2021/05/06 14:23:04;;;;;;;3.30;1.77;;;11.60;99.90;;;;;;5054855;28;20181;-80
2021/05/06 14:25:30;;;;;;;5.90;1.80;;;11.50;99.90;;;;;;5054412;28;20443;-80
2021/05/06 14:27:57;;;;;;;3.40;2.00;;;11.30;99.90;;;;;;5037019;28;20451;-78
2021/05/06 14:30:23;;;;;;;7.40;2.27;;;11.40;99.90;;;;;;5053365;28;20177;-78
2021/05/06 14:32:49;;;;;;;2.42;1.80;;;11.10;99.90;;;;;;5054295;28;20408;-81
2021/05/06 14:35:15;;;;;;;4.93;2.00;;;11.00;99.90;;;;;;5054185;28;20260;-78
2021/05/06 14:37:41;;;;;;;5.07;2.27;;;11.10;99.90;;;;;;5054371;28;20517;-81
2021/05/06 14:40:07;;;;;;;3.97;1.73;;;11.20;99.90;;;;;;5054453;28;20184;-78
2021/05/06 14:42:33;;;;;;;2.22;1.80;;;10.90;99.90;;;;;;5054313;28;20310;-80
2021/05/06 14:44:59;;;;;;;4.30;2.00;;;11.00;99.90;;;;;;5052826;28;20267;-82
2021/05/06 14:47:25;;;;;;;6.43;1.70;;;11.20;99.90;;;;;;5054142;28;20658;-78
2021/05/06 14:49:51;;;;;;;4.33;2.23;;;11.20;99.90;;;;;;5053105;28;20495;-79
2021/05/06 14:52:16;;;;;;;4.33;2.20;;;11.20;99.90;;;;;;5053155;28;20173;-80
2021/05/06 14:54:44;;;;;;;2.43;1.90;;;11.20;99.90;;;;;;5052623;28;20228;-77
2021/05/06 14:57:10;;;;;;;4.85;2.35;;;10.90;99.90;;;;;;5053983;28;20189;-77
2021/05/06 14:59:36;;;;;;;3.33;2.40;;;10.40;99.90;;;;;;5054215;28;20224;-74
2021/05/06 15:02:02;;;;;;;3.60;1.80;;;10.10;99.90;;;;;;5054191;28;20180;-76
2021/05/06 15:04:27;;;;;;;2.37;2.17;;;9.80;99.90;;;;;;5053819;28;20622;-76
2021/05/06 15:06:56;;;;;;;3.60;2.37;;;9.70;99.90;;;;;;5050801;28;20479;-79
2021/05/06 15:09:24;;;;;;;6.60;3.45;;;9.60;99.90;;;;;;5050759;28;20411;-80
2021/05/06 15:11:50;;;;;;;3.60;2.65;;;9.50;99.90;;;;;;5049931;28;20201;-79
2021/05/06 15:14:15;;;;;;;5.17;2.73;;;9.30;99.90;;;;;;5047216;28;20285;-81
2021/05/06 15:16:41;;;;;;;6.60;3.27;;;9.40;99.90;;;;;;5050111;28;20208;-81
2021/05/06 15:19:07;;;;;;;4.90;2.90;;;9.30;99.90;;;;;;5052214;28;20177;-79
2021/05/06 15:21:32;;;;;;;5.80;3.30;;;9.20;99.90;;;;;;5049663;28;20272;-81
2021/05/06 15:23:58;;;;;;;4.07;3.23;;;9.20;99.90;;;;;;5049807;28;20191;-81
2021/05/06 15:26:23;;;;;;;5.43;3.20;;;9.30;99.90;;;;;;5051235;28;20204;-78
2021/05/06 15:28:51;;;;;;;4.20;3.03;;;9.40;99.90;;;;;;5051478;28;20207;-78
2021/05/06 15:31:17;;;;;;;3.80;3.40;;;9.30;99.90;;;;;;5051678;28;20723;-79
2021/05/06 15:33:42;;;;;;;4.80;3.30;;;9.30;99.90;;;;;;5052209;28;20208;-81
2021/05/06 15:36:10;;;;;;;9.03;3.27;;;9.30;99.90;;;;;;5050944;28;20197;-79
2021/05/06 15:38:36;;;;;;;4.20;2.90;;;9.30;99.90;;;;;;5051061;28;20210;-78
2021/05/06 15:41:02;;;;;;;3.87;3.00;;;9.30;99.90;;;;;;5051537;28;20264;-79
2021/05/06 15:43:27;;;;;;;5.13;3.17;;;9.50;99.90;;;;;;5051643;28;20192;-78
2021/05/06 15:45:56;;;;;;;4.47;3.07;;;9.50;99.90;;;;;;5051191;28;20210;-80
2021/05/06 15:48:21;;;;;;;4.85;3.17;;;9.50;99.90;;;;;;5052011;28;20200;-81
2021/05/06 15:50:47;;;;;;;3.77;3.37;;;9.60;99.90;;;;;;5050734;28;20185;-79
2021/05/06 15:53:13;;;;;;;4.67;2.93;;;9.60;99.90;;;;;;5052017;28;20454;-78
2021/05/06 15:55:39;;;;;;;4.10;3.47;;;9.40;99.90;;;;;;5051243;28;20456;-79
2021/05/06 15:58:06;;;;;;;5.72;2.90;;;9.20;99.90;;;;;;5051537;28;20693;-79
2021/05/06 16:00:32;;;;;;;5.32;3.38;;;9.10;99.90;;;;;;5051936;28;20173;-78
2021/05/06 16:03:02;;;;;;;4.47;2.95;;;9.00;99.90;;;;;;5052014;28;20227;-80
2021/05/06 16:05:29;;;;;;;4.82;3.60;;;9.10;99.90;;;;;;5050568;28;20185;-79
2021/05/06 16:07:56;;;;;;;5.75;4.15;;;9.00;99.90;;;;;;5051846;28;20189;-80
2021/05/06 16:10:23;;;;;;;9.73;4.28;;;9.00;99.90;;;;;;5052440;28;20185;-79
2021/05/06 16:12:49;;;;;;;6.45;4.28;;;8.90;99.90;;;;;;5051874;28;20231;-81
2021/05/06 16:15:15;;;;;;;4.57;4.05;;;8.90;99.90;;;;;;5050020;28;20287;-78
2021/05/06 16:17:41;;;;;;;7.60;4.00;;;9.00;99.90;;;;;;5051031;28;20466;-81
2021/05/06 16:20:17;;;;;;;5.20;4.00;;;9.10;99.90;;;;;;5051012;28;20184;-79
2021/05/06 16:22:43;;;;;;;6.38;3.95;;;9.00;99.90;;;;;;5051542;28;20816;-82
2021/05/06 16:25:14;;;;;;;4.70;3.65;;;8.90;99.90;;;;;;5043549;28;20193;-83